Time;durP1;ratioP1;P1;durP2;ratioP2;P2;SDS_P1;SDS_P2;PMS_P1;PMS_P2;Temp;Humidity;BMP_temperature;BMP_pressure;BME280_temperature;BME280_humidity;BME280_pressure;Samples;Min_cycle;Max_cycle;Signal;HPM_P1;HPM_P2
2023/10/17 00:02:12;;;;;;;10.17;9.87;;;4.60;99.90;;;;;;6294593;22;20217;-80
2023/10/17 00:04:41;;;;;;;10.33;10.03;;;4.50;99.90;;;;;;6294639;22;20201;-79
2023/10/17 00:07:12;;;;;;;10.10;9.80;;;4.40;99.90;;;;;;6295796;22;20193;-80
2023/10/17 00:09:41;;;;;;;10.07;9.77;;;4.40;99.90;;;;;;6296178;22;20213;-80
2023/10/17 00:12:25;;;;;;;10.30;10.00;;;4.40;99.90;;;;;;6295485;22;20220;-80
2023/10/17 00:14:58;;;;;;;10.33;10.03;;;4.30;99.90;;;;;;6296234;22;20228;-80
2023/10/17 00:17:25;;;;;;;10.13;9.83;;;4.30;99.90;;;;;;6295184;22;20205;-79
2023/10/17 00:19:54;;;;;;;10.37;10.07;;;4.30;99.90;;;;;;6295401;22;20197;-80
2023/10/17 00:22:28;;;;;;;10.20;9.90;;;4.30;99.90;;;;;;6296023;22;20212;-79
2023/10/17 00:24:58;;;;;;;10.30;10.00;;;4.30;99.90;;;;;;6295803;22;20222;-80
2023/10/17 00:27:25;;;;;;;10.07;9.77;;;4.20;99.90;;;;;;6295162;22;20208;-80
2023/10/17 00:29:52;;;;;;;10.20;9.90;;;4.20;99.90;;;;;;6296070;22;21088;-79
2023/10/17 00:32:20;;;;;;;10.20;9.90;;;4.10;99.90;;;;;;6295821;22;20252;-79
2023/10/17 00:34:49;;;;;;;9.90;9.60;;;4.00;99.90;;;;;;6295442;22;20225;-79
2023/10/17 00:37:19;;;;;;;9.90;9.60;;;4.00;99.90;;;;;;6295830;22;20276;-80
2023/10/17 00:39:49;;;;;;;10.13;9.83;;;4.00;99.90;;;;;;6295893;22;20193;-79
2023/10/17 00:45:00;;;;;;;9.97;9.67;;;3.90;99.90;;;;;;6294255;22;20209;-80
2023/10/17 00:47:28;;;;;;;10.10;9.80;;;4.00;99.90;;;;;;6295821;22;20206;-79
2023/10/17 00:49:59;;;;;;;10.00;9.70;;;3.90;99.90;;;;;;6295545;22;20193;-79
2023/10/17 00:52:32;;;;;;;10.00;9.70;;;3.90;99.90;;;;;;6295676;22;20182;-78
2023/10/17 00:55:04;;;;;;;9.97;9.67;;;3.80;99.90;;;;;;6295627;22;20194;-79
2023/10/17 00:57:33;;;;;;;10.30;10.00;;;3.80;99.90;;;;;;6300070;22;20220;-79
2023/10/17 01:00:11;;;;;;;10.10;9.80;;;3.70;99.90;;;;;;6300581;22;20233;-78
2023/10/17 01:02:44;;;;;;;9.90;9.60;;;3.70;99.90;;;;;;6300769;22;20193;-79
2023/10/17 01:05:12;;;;;;;10.00;9.70;;;3.70;99.90;;;;;;6300198;22;20217;-79
2023/10/17 01:07:40;;;;;;;9.80;9.50;;;3.60;99.90;;;;;;6298042;22;20212;-79
2023/10/17 01:10:17;;;;;;;9.87;9.57;;;3.60;99.90;;;;;;6296561;22;20212;-78
2023/10/17 01:12:52;;;;;;;10.17;9.87;;;3.60;99.90;;;;;;6296117;22;20225;-78
2023/10/17 01:15:20;;;;;;;10.00;9.70;;;3.60;99.90;;;;;;6297383;22;20196;-78
2023/10/17 01:17:48;;;;;;;10.17;9.87;;;3.60;99.90;;;;;;6296827;22;20219;-79
2023/10/17 01:20:20;;;;;;;10.00;9.70;;;3.60;99.90;;;;;;6297698;22;20201;-78
2023/10/17 01:22:47;;;;;;;10.20;9.90;;;3.50;99.90;;;;;;6297754;22;20284;-79
2023/10/17 01:25:25;;;;;;;10.20;9.90;;;3.50;99.90;;;;;;6305755;22;20189;-77
2023/10/17 01:27:52;;;;;;;10.20;9.90;;;3.50;99.90;;;;;;6305860;22;20193;-79
2023/10/17 01:30:22;;;;;;;10.00;9.70;;;3.50;99.90;;;;;;6297685;22;20250;-80
2023/10/17 01:32:51;;;;;;;10.30;10.00;;;3.40;99.90;;;;;;6297317;22;20197;-79
2023/10/17 01:35:19;;;;;;;10.23;9.93;;;3.40;99.90;;;;;;6296257;22;20263;-79
2023/10/17 01:37:46;;;;;;;10.33;10.03;;;3.40;99.90;;;;;;6295318;22;20214;-79
2023/10/17 01:40:22;;;;;;;10.40;10.10;;;3.40;99.90;;;;;;6295101;22;20216;-79
2023/10/17 01:42:51;;;;;;;10.03;9.73;;;3.30;99.90;;;;;;6294008;22;20272;-79
2023/10/17 01:45:25;;;;;;;10.37;10.07;;;3.40;99.90;;;;;;6294454;22;20213;-81
2023/10/17 01:47:53;;;;;;;10.43;10.13;;;3.30;99.90;;;;;;6294570;22;20224;-79
2023/10/17 01:50:21;;;;;;;10.40;10.10;;;3.30;99.90;;;;;;6295133;22;20213;-79
2023/10/17 01:52:50;;;;;;;10.57;10.27;;;3.20;99.90;;;;;;6294630;22;20201;-79
2023/10/17 01:55:24;;;;;;;10.60;10.30;;;3.20;99.90;;;;;;6298702;22;20412;-79
2023/10/17 01:57:54;;;;;;;10.30;10.00;;;3.20;99.90;;;;;;6297449;22;20194;-79
2023/10/17 02:00:37;;;;;;;9.90;9.60;;;3.20;99.90;;;;;;6296525;22;20256;-79
2023/10/17 02:03:05;;;;;;;9.80;9.50;;;3.20;99.90;;;;;;6294708;22;20204;-80
2023/10/17 02:05:34;;;;;;;9.60;9.30;;;3.20;99.90;;;;;;6294823;22;20205;-80
2023/10/17 02:08:05;;;;;;;9.73;9.43;;;3.20;99.90;;;;;;6294225;22;20201;-80
2023/10/17 02:10:36;;;;;;;9.80;9.50;;;3.20;99.90;;;;;;6294664;22;20269;-81
2023/10/17 02:13:06;;;;;;;10.00;9.70;;;3.20;99.90;;;;;;6296046;22;20282;-79
2023/10/17 02:15:34;;;;;;;9.90;9.60;;;3.20;99.90;;;;;;6295282;22;20220;-80
2023/10/17 02:18:11;;;;;;;9.90;9.60;;;3.20;99.90;;;;;;6295523;22;20221;-79
2023/10/17 02:20:45;;;;;;;9.77;9.47;;;3.20;99.90;;;;;;6295076;22;20224;-80
2023/10/17 02:23:19;;;;;;;10.13;9.83;;;3.20;99.90;;;;;;6296324;22;20198;-79
2023/10/17 02:25:50;;;;;;;10.23;9.93;;;3.20;99.90;;;;;;6295616;22;20216;-80
2023/10/17 02:28:17;;;;;;;10.17;9.87;;;3.20;99.90;;;;;;6294215;22;20190;-80
2023/10/17 02:30:46;;;;;;;10.27;9.97;;;3.20;99.90;;;;;;6294544;22;20209;-79
2023/10/17 02:33:17;;;;;;;9.80;9.50;;;3.20;99.90;;;;;;6295194;22;20197;-78
2023/10/17 02:36:05;;;;;;;9.93;9.63;;;3.20;99.90;;;;;;6295105;22;20186;-79
2023/10/17 02:38:34;;;;;;;10.00;9.70;;;3.20;99.90;;;;;;6295568;22;20197;-79
2023/10/17 02:41:06;;;;;;;10.00;9.70;;;3.20;99.90;;;;;;6294383;22;20205;-79
2023/10/17 02:43:37;;;;;;;9.70;9.40;;;3.20;99.90;;;;;;6294786;22;20189;-79
2023/10/17 02:46:05;;;;;;;9.50;9.20;;;3.10;99.90;;;;;;6295210;22;20217;-79
2023/10/17 02:48:38;;;;;;;9.60;9.30;;;3.10;99.90;;;;;;6299603;22;20181;-79
2023/10/17 02:51:11;;;;;;;9.50;9.20;;;3.10;99.90;;;;;;6302076;22;20193;-79
2023/10/17 02:53:43;;;;;;;9.63;9.33;;;3.00;99.90;;;;;;6298648;22;20190;-79
2023/10/17 02:56:20;;;;;;;9.60;9.30;;;3.00;99.90;;;;;;6297158;22;20264;-80
2023/10/17 02:58:51;;;;;;;9.70;9.40;;;3.00;99.90;;;;;;6298417;22;21106;-79
2023/10/17 03:01:18;;;;;;;9.90;9.60;;;3.00;99.90;;;;;;6300180;22;20288;-80
2023/10/17 03:03:54;;;;;;;10.10;9.80;;;2.90;99.90;;;;;;6296612;22;20213;-79
2023/10/17 03:06:25;;;;;;;10.03;9.73;;;2.90;99.90;;;;;;6295903;22;20193;-79
2023/10/17 03:09:00;;;;;;;10.17;9.87;;;2.80;99.90;;;;;;6295574;22;20206;-79
2023/10/17 03:11:35;;;;;;;10.10;9.80;;;2.70;99.90;;;;;;6295460;22;20209;-80
2023/10/17 03:14:15;;;;;;;10.10;9.80;;;2.70;99.90;;;;;;6295037;22;20193;-79
2023/10/17 03:16:43;;;;;;;9.93;9.63;;;2.70;99.90;;;;;;6295896;22;20236;-80
2023/10/17 03:19:12;;;;;;;10.30;10.00;;;2.60;99.90;;;;;;6295545;22;20213;-80
2023/10/17 03:21:43;;;;;;;10.30;10.00;;;2.50;99.90;;;;;;6296468;22;20249;-80
2023/10/17 03:24:12;;;;;;;10.33;10.03;;;2.50;99.90;;;;;;6296857;22;20288;-79
2023/10/17 03:26:54;;;;;;;9.90;9.60;;;2.40;99.90;;;;;;6299196;22;20269;-79
2023/10/17 03:29:23;;;;;;;10.10;9.80;;;2.50;99.90;;;;;;6297185;22;20207;-81
2023/10/17 03:31:58;;;;;;;10.17;9.87;;;2.40;99.90;;;;;;6296316;22;20185;-80
2023/10/17 03:34:34;;;;;;;10.00;9.70;;;2.40;99.90;;;;;;6295866;22;20279;-80
2023/10/17 03:37:26;;;;;;;10.07;9.77;;;2.40;99.90;;;;;;6295793;22;20199;-80
2023/10/17 03:39:57;;;;;;;10.00;9.70;;;2.40;99.90;;;;;;6295431;22;20264;-80
2023/10/17 03:45:17;;;;;;;10.13;9.83;;;2.30;99.90;;;;;;6299145;22;20205;-80
2023/10/17 03:47:53;;;;;;;10.07;9.77;;;2.30;99.90;;;;;;6297759;22;20201;-80
2023/10/17 03:50:34;;;;;;;10.20;9.90;;;2.20;99.90;;;;;;6297006;22;20205;-81
2023/10/17 03:53:14;;;;;;;10.10;9.80;;;2.20;99.90;;;;;;6296084;22;20197;-80
2023/10/17 03:55:44;;;;;;;10.00;9.70;;;2.10;99.90;;;;;;6295545;22;20220;-80
2023/10/17 03:58:29;;;;;;;9.90;9.60;;;2.10;99.90;;;;;;6295462;22;20228;-80
2023/10/17 04:01:06;;;;;;;10.30;10.00;;;2.00;99.90;;;;;;6295051;22;20201;-80
2023/10/17 04:03:34;;;;;;;10.00;9.70;;;2.00;99.90;;;;;;6295621;22;20197;-80
2023/10/17 04:06:16;;;;;;;10.00;9.70;;;2.00;99.90;;;;;;6295163;22;20193;-81
2023/10/17 04:08:48;;;;;;;9.80;9.50;;;2.00;99.90;;;;;;6294566;22;20295;-80
2023/10/17 04:11:25;;;;;;;9.90;9.60;;;1.90;99.90;;;;;;6298557;22;20252;-80
2023/10/17 04:16:46;;;;;;;10.20;9.90;;;2.00;99.90;;;;;;6298212;22;20245;-87
2023/10/17 04:22:07;;;;;;;9.50;9.20;;;2.00;99.90;;;;;;6295103;22;20220;-85
2023/10/17 04:24:49;;;;;;;9.30;9.00;;;2.00;99.90;;;;;;6266774;22;20194;-84
2023/10/17 04:32:53;;;;;;;9.67;9.37;;;2.00;99.90;;;;;;6266630;22;20254;-86
2023/10/17 04:38:19;;;;;;;9.73;9.43;;;1.90;99.90;;;;;;6266541;22;20229;-87
2023/10/17 04:43:54;;;;;;;9.80;9.50;;;1.80;99.90;;;;;;6274970;22;20198;-85
2023/10/17 04:46:26;;;;;;;9.47;9.17;;;1.90;99.90;;;;;;6265358;22;20186;-86
2023/10/17 04:48:58;;;;;;;9.70;9.40;;;1.80;99.90;;;;;;6265512;22;20199;-86
2023/10/17 04:51:31;;;;;;;9.53;9.23;;;1.80;99.90;;;;;;6266365;22;20194;-86
2023/10/17 04:54:09;;;;;;;9.90;9.60;;;1.80;99.90;;;;;;6267444;22;20241;-86
2023/10/17 04:56:52;;;;;;;9.70;9.40;;;1.90;99.90;;;;;;6266765;22;20198;-86
2023/10/17 05:07:30;;;;;;;9.30;9.00;;;1.70;99.90;;;;;;6265616;22;20190;-87
2023/10/17 06:20:18;;;;;;;10.93;10.53;;;2.10;99.90;;;;;;6295135;22;20197;-88
2023/10/17 06:28:34;;;;;;;10.60;10.30;;;2.30;99.90;;;;;;6274275;22;20245;-88
2023/10/17 06:31:34;;;;;;;10.50;10.20;;;2.40;99.90;;;;;;6295413;22;20220;-87
2023/10/17 06:34:03;;;;;;;10.27;9.97;;;2.50;99.90;;;;;;6295541;22;20213;-88
2023/10/17 06:36:30;;;;;;;10.53;10.23;;;2.60;99.90;;;;;;6295309;22;20194;-87
2023/10/17 06:38:57;;;;;;;10.50;10.20;;;2.60;99.90;;;;;;6295856;22;20197;-86
2023/10/17 06:41:38;;;;;;;10.37;10.07;;;2.70;99.90;;;;;;6295534;22;20269;-85
2023/10/17 06:46:55;;;;;;;10.40;10.10;;;2.90;99.90;;;;;;6295183;22;20209;-85
2023/10/17 06:49:46;;;;;;;10.43;10.13;;;3.00;99.90;;;;;;6296109;22;20208;-85
2023/10/17 06:52:19;;;;;;;10.57;10.27;;;3.00;99.90;;;;;;6295731;22;20201;-84
2023/10/17 06:54:50;;;;;;;10.60;10.30;;;3.10;99.90;;;;;;6296232;22;20221;-85
2023/10/17 06:57:33;;;;;;;10.40;10.10;;;3.20;99.90;;;;;;6296088;22;20285;-84
2023/10/17 07:02:50;;;;;;;10.40;10.10;;;3.40;99.90;;;;;;6308876;22;20197;-83
2023/10/17 07:05:21;;;;;;;10.30;10.00;;;3.40;99.90;;;;;;6300865;22;20217;-84
2023/10/17 07:07:52;;;;;;;10.40;10.10;;;3.60;99.90;;;;;;6294868;22;20232;-85
2023/10/17 07:10:37;;;;;;;10.80;10.50;;;3.60;99.90;;;;;;6296107;22;20198;-85
2023/10/17 07:13:55;;;;;;;10.83;10.53;;;3.70;99.90;;;;;;6296823;22;20201;-85
2023/10/17 07:16:33;;;;;;;10.97;10.67;;;3.70;99.90;;;;;;6296186;22;20236;-85
2023/10/17 07:19:46;;;;;;;10.80;10.50;;;3.80;99.90;;;;;;6295381;22;20244;-86
2023/10/17 07:22:05;;;;;;;10.70;10.40;;;4.00;99.90;;;;;;6298517;22;20212;-84
2023/10/17 07:24:48;;;;;;;10.53;10.23;;;4.10;99.90;;;;;;6271920;22;20204;-85
2023/10/17 07:30:49;;;;;;;10.70;10.40;;;4.20;99.90;;;;;;6302640;22;20252;-84
2023/10/17 07:36:15;;;;;;;10.80;10.50;;;4.40;99.90;;;;;;6297040;22;20265;-87
2023/10/17 07:38:44;;;;;;;10.53;10.23;;;4.50;99.90;;;;;;6298308;22;20197;-85
2023/10/17 07:41:36;;;;;;;10.80;10.50;;;4.60;99.90;;;;;;6296941;22;20220;-86
2023/10/17 07:44:19;;;;;;;10.70;10.40;;;4.70;99.90;;;;;;6297684;22;20284;-86
2023/10/17 07:49:35;;;;;;;10.70;10.40;;;4.90;99.90;;;;;;6310100;22;20224;-83
2023/10/17 07:54:57;;;;;;;10.70;10.40;;;5.10;99.90;;;;;;6310346;22;20212;-88
2023/10/17 07:57:27;;;;;;;10.70;10.40;;;5.20;99.90;;;;;;6307086;22;20195;-85
2023/10/17 07:59:58;;;;;;;10.57;10.27;;;5.30;99.90;;;;;;6311290;22;20250;-87
2023/10/17 08:02:30;;;;;;;10.43;10.13;;;5.40;99.90;;;;;;6310756;22;20190;-85
2023/10/17 08:05:16;;;;;;;10.73;10.43;;;5.60;99.90;;;;;;6311275;22;20169;-86
2023/10/17 08:19:12;;;;;;;10.60;10.30;;;6.10;99.90;;;;;;6291170;22;20225;-86
2023/10/17 08:21:59;;;;;;;11.00;10.70;;;6.20;99.90;;;;;;6293384;22;20192;-86
2023/10/17 08:24:45;;;;;;;10.60;10.30;;;6.30;99.90;;;;;;6293464;22;20208;-86
2023/10/17 08:33:46;;;;;;;;;;;;;;;;;;;;;
2023/10/17 08:36:28;;;;;;;10.77;10.47;;;7.20;99.90;;;;;;6299371;22;20204;-88
2023/10/17 08:43:04;;;;;;;11.20;10.80;;;7.70;99.90;;;;;;6270933;22;20200;-86
2023/10/17 08:49:22;;;;;;;11.20;10.80;;;8.20;99.90;;;;;;6248447;22;20272;-90
2023/10/17 08:52:05;;;;;;;11.20;10.80;;;8.40;99.90;;;;;;6297668;22;20209;-90
2023/10/17 08:58:17;;;;;;;11.23;10.83;;;8.70;99.90;;;;;;6300443;22;20194;-92
2023/10/17 09:00:57;;;;;;;10.90;10.60;;;8.90;99.90;;;;;;6297377;22;20197;-90
2023/10/17 09:03:44;;;;;;;11.40;11.00;;;9.00;99.90;;;;;;6296927;22;20208;-89
2023/10/17 09:12:42;;;;;;;10.80;10.50;;;9.50;99.90;;;;;;6297568;22;20260;-92
2023/10/17 09:16:12;;;;;;;10.90;10.60;;;9.70;99.90;;;;;;6297315;22;20189;-90
2023/10/17 09:27:34;;;;;;;10.70;10.40;;;10.30;99.90;;;;;;6292720;22;20253;-87
2023/10/17 09:30:08;;;;;;;10.90;10.60;;;10.40;99.90;;;;;;6297644;22;20272;-90
2023/10/17 09:33:05;;;;;;;11.10;10.80;;;10.50;99.90;;;;;;6298485;22;20286;-90
2023/10/17 10:08:22;;;;;;;11.00;10.70;;;12.00;99.90;;;;;;6243410;22;20224;-90
2023/10/17 10:17:00;;;;;;;10.87;10.57;;;12.20;99.90;;;;;;6325940;22;20250;-80
2023/10/17 10:20:13;;;;;;;10.87;10.57;;;12.40;99.90;;;;;;6323518;22;20961;-79
2023/10/17 10:23:05;;;;;;;11.10;10.80;;;12.50;99.90;;;;;;6325417;22;20215;-80
2023/10/17 10:25:44;;;;;;;11.20;10.80;;;12.60;99.90;;;;;;6326273;22;20220;-80
2023/10/17 10:28:31;;;;;;;10.80;10.50;;;12.60;99.90;;;;;;6324687;22;20253;-80
2023/10/17 10:31:00;;;;;;;10.97;10.67;;;12.40;99.90;;;;;;6324742;22;20197;-79
2023/10/17 10:33:31;;;;;;;11.00;10.70;;;12.40;99.90;;;;;;6323619;22;20204;-80
2023/10/17 10:36:04;;;;;;;10.70;10.40;;;12.40;99.90;;;;;;6325093;22;20247;-80
2023/10/17 10:38:31;;;;;;;10.90;10.60;;;12.50;99.90;;;;;;6324731;22;20205;-80
2023/10/17 10:41:11;;;;;;;10.60;10.30;;;12.70;99.90;;;;;;6325367;22;20200;-82
2023/10/17 10:43:38;;;;;;;10.80;10.50;;;12.80;99.90;;;;;;6324488;22;20208;-81
2023/10/17 10:46:08;;;;;;;10.70;10.40;;;12.80;99.90;;;;;;6324998;22;20262;-80
2023/10/17 10:48:46;;;;;;;10.83;10.53;;;12.80;99.90;;;;;;6324057;22;20201;-80
2023/10/17 10:51:17;;;;;;;10.90;10.60;;;12.90;99.90;;;;;;6322317;22;20212;-80
2023/10/17 10:53:54;;;;;;;10.67;10.37;;;13.00;99.90;;;;;;6323697;22;20201;-81
2023/10/17 10:56:22;;;;;;;10.50;10.20;;;13.00;99.90;;;;;;6326856;22;20204;-81
2023/10/17 10:58:53;;;;;;;10.83;10.53;;;13.00;99.90;;;;;;6327095;22;20265;-81
2023/10/17 11:01:22;;;;;;;10.70;10.40;;;12.90;99.90;;;;;;6327588;22;20189;-80
2023/10/17 11:03:51;;;;;;;10.90;10.60;;;12.70;99.90;;;;;;6326948;22;20197;-81
2023/10/17 11:06:30;;;;;;;10.90;10.60;;;12.50;99.90;;;;;;6327449;22;20201;-81
2023/10/17 11:08:59;;;;;;;10.83;10.53;;;12.50;99.90;;;;;;6327122;22;20192;-81
2023/10/17 11:11:38;;;;;;;10.80;10.50;;;12.40;99.90;;;;;;6328226;22;20189;-80
2023/10/17 11:14:06;;;;;;;10.70;10.40;;;12.30;99.90;;;;;;6333958;22;20204;-80
2023/10/17 11:16:36;;;;;;;10.40;10.10;;;12.30;99.90;;;;;;6328710;22;20280;-80
2023/10/17 11:19:08;;;;;;;10.60;10.30;;;12.30;99.90;;;;;;6328262;22;20197;-80
2023/10/17 11:21:38;;;;;;;10.50;10.20;;;12.30;99.90;;;;;;6327443;22;20222;-80
2023/10/17 11:24:09;;;;;;;10.70;10.40;;;12.30;99.90;;;;;;6326647;22;20250;-80
2023/10/17 11:26:44;;;;;;;10.17;9.87;;;12.30;99.90;;;;;;6326303;22;20200;-80
2023/10/17 11:29:11;;;;;;;10.50;10.20;;;12.20;99.90;;;;;;6326916;22;20188;-80
2023/10/17 11:31:41;;;;;;;10.47;10.17;;;12.20;99.90;;;;;;6326503;22;20204;-80
2023/10/17 11:34:12;;;;;;;10.40;10.10;;;12.20;99.90;;;;;;6324698;22;20208;-80
2023/10/17 11:36:49;;;;;;;10.47;10.17;;;12.20;99.90;;;;;;6324588;22;20227;-80
2023/10/17 11:39:20;;;;;;;10.70;10.40;;;12.30;99.90;;;;;;6326024;22;20188;-80
2023/10/17 11:41:48;;;;;;;10.67;10.37;;;12.40;99.90;;;;;;6324074;22;20228;-80
2023/10/17 11:44:23;;;;;;;10.63;10.33;;;12.30;99.90;;;;;;6325537;22;20193;-80
2023/10/17 11:47:01;;;;;;;10.60;10.30;;;12.30;99.90;;;;;;6326358;22;20248;-80
2023/10/17 11:49:35;;;;;;;10.50;10.20;;;12.40;99.90;;;;;;6325500;22;20189;-80
2023/10/17 11:52:09;;;;;;;10.30;10.00;;;12.50;99.90;;;;;;6324668;22;20215;-80
2023/10/17 11:55:00;;;;;;;10.53;10.23;;;12.50;99.90;;;;;;6323693;22;20206;-79
2023/10/17 11:57:29;;;;;;;10.50;10.20;;;12.60;99.90;;;;;;6322594;22;20193;-80
2023/10/17 11:59:58;;;;;;;10.63;10.33;;;12.60;99.90;;;;;;6325273;22;20200;-80
2023/10/17 12:02:29;;;;;;;10.37;10.07;;;12.70;99.90;;;;;;6324617;22;20192;-80
2023/10/17 12:04:56;;;;;;;10.60;10.30;;;12.70;99.90;;;;;;6323060;22;20229;-79
2023/10/17 12:07:27;;;;;;;10.40;10.10;;;12.70;99.90;;;;;;6323889;22;20200;-81
2023/10/17 12:10:03;;;;;;;10.57;10.27;;;12.80;99.90;;;;;;6323099;22;20185;-80
2023/10/17 12:15:13;;;;;;;10.57;10.27;;;12.30;99.90;;;;;;6324578;22;20200;-80
2023/10/17 12:17:41;;;;;;;10.43;10.13;;;12.30;99.90;;;;;;6325461;22;20247;-80
2023/10/17 12:20:11;;;;;;;10.00;9.70;;;12.30;99.90;;;;;;6326491;22;20203;-79
2023/10/17 12:22:43;;;;;;;9.03;8.83;;;12.30;99.90;;;;;;6325201;22;20220;-80
2023/10/17 12:25:10;;;;;;;8.67;8.47;;;12.50;99.90;;;;;;6324673;22;20200;-79
2023/10/17 12:27:39;;;;;;;8.83;8.63;;;12.40;99.90;;;;;;6324434;22;20743;-80
2023/10/17 12:30:09;;;;;;;8.87;8.67;;;12.50;99.90;;;;;;6325333;22;20193;-79
2023/10/17 12:32:38;;;;;;;8.80;8.60;;;12.40;99.90;;;;;;6326080;22;20188;-80
2023/10/17 12:35:12;;;;;;;8.80;8.60;;;12.40;99.90;;;;;;6325072;22;20201;-81
2023/10/17 12:37:50;;;;;;;9.27;8.97;;;12.40;99.90;;;;;;6325405;22;20204;-80
2023/10/17 12:43:16;;;;;;;8.90;8.70;;;12.20;99.90;;;;;;6332143;22;20204;-80
2023/10/17 12:45:44;;;;;;;9.13;8.90;;;12.20;99.90;;;;;;6332886;22;20201;-80
2023/10/17 12:48:14;;;;;;;9.07;8.83;;;12.30;99.90;;;;;;6332504;22;20193;-79
2023/10/17 12:50:43;;;;;;;9.50;9.20;;;12.30;99.90;;;;;;6328194;22;20227;-80
2023/10/17 12:53:13;;;;;;;9.20;8.90;;;12.30;99.90;;;;;;6326617;22;20205;-80
2023/10/17 12:55:41;;;;;;;8.97;8.77;;;12.20;99.90;;;;;;6328671;22;20197;-79
2023/10/17 12:58:10;;;;;;;8.90;8.70;;;12.20;99.90;;;;;;6327298;22;20296;-79
2023/10/17 13:00:39;;;;;;;9.57;9.27;;;12.20;99.90;;;;;;6324983;22;20201;-80
2023/10/17 13:03:17;;;;;;;9.40;9.10;;;12.20;99.90;;;;;;6326913;22;20189;-80
2023/10/17 13:05:46;;;;;;;9.00;8.80;;;12.10;99.90;;;;;;6328728;22;20215;-80
2023/10/17 13:08:18;;;;;;;8.80;8.60;;;12.00;99.90;;;;;;6328581;22;20201;-80
2023/10/17 13:10:49;;;;;;;8.80;8.60;;;11.90;99.90;;;;;;6327921;22;20280;-78
2023/10/17 13:13:17;;;;;;;8.77;8.57;;;12.00;99.90;;;;;;6327791;22;20219;-80
2023/10/17 13:15:44;;;;;;;8.77;8.57;;;12.00;99.90;;;;;;6329724;22;20240;-80
2023/10/17 13:18:14;;;;;;;8.60;8.40;;;12.00;99.90;;;;;;6329211;22;20200;-80
2023/10/17 13:20:48;;;;;;;8.70;8.50;;;12.00;99.90;;;;;;6329193;22;20197;-79
2023/10/17 13:23:22;;;;;;;9.33;9.03;;;12.00;99.90;;;;;;6328694;22;20248;-80
2023/10/17 13:25:51;;;;;;;9.27;8.97;;;12.00;99.90;;;;;;6325971;22;20242;-81
2023/10/17 13:28:30;;;;;;;9.07;8.80;;;12.10;99.90;;;;;;6324936;22;20220;-80
2023/10/17 13:30:58;;;;;;;8.87;8.67;;;12.10;99.90;;;;;;6324158;22;20204;-80
2023/10/17 13:33:28;;;;;;;8.80;8.60;;;12.00;99.90;;;;;;6324746;22;20197;-80
2023/10/17 13:35:58;;;;;;;9.03;8.83;;;12.00;99.90;;;;;;6326100;22;20205;-79
2023/10/17 13:38:29;;;;;;;9.17;8.93;;;12.00;99.90;;;;;;6324302;22;20197;-81
2023/10/17 13:41:05;;;;;;;9.23;8.97;;;11.90;99.90;;;;;;6325451;22;21045;-80
2023/10/17 13:43:34;;;;;;;8.70;8.50;;;11.90;99.90;;;;;;6325598;22;20208;-80
2023/10/17 13:46:13;;;;;;;8.90;8.70;;;11.90;99.90;;;;;;6327711;22;20243;-79
2023/10/17 13:48:46;;;;;;;9.03;8.83;;;12.00;99.90;;;;;;6327229;22;20185;-79
2023/10/17 13:51:13;;;;;;;9.33;9.03;;;12.20;99.90;;;;;;6326721;22;20197;-80
2023/10/17 13:53:45;;;;;;;9.60;9.30;;;12.50;99.90;;;;;;6324531;22;20219;-81
2023/10/17 13:56:13;;;;;;;9.80;9.50;;;13.00;99.90;;;;;;6324739;22;20201;-80
2023/10/17 13:58:41;;;;;;;9.60;9.30;;;13.70;99.90;;;;;;6325194;22;20185;-80
2023/10/17 14:01:32;;;;;;;9.63;9.33;;;14.30;99.90;;;;;;6324805;22;20251;-79
2023/10/17 14:04:09;;;;;;;9.50;9.20;;;15.00;99.90;;;;;;6325559;22;20271;-80
2023/10/17 14:06:38;;;;;;;8.98;8.77;;;15.60;99.90;;;;;;6325003;22;20215;-80
2023/10/17 14:09:14;;;;;;;9.00;8.80;;;15.70;99.90;;;;;;6325666;22;20248;-79
2023/10/17 14:11:43;;;;;;;9.43;9.13;;;15.70;99.90;;;;;;6326360;22;20201;-80
2023/10/17 14:14:12;;;;;;;9.48;9.18;;;16.00;99.90;;;;;;6324351;22;20203;-81
2023/10/17 14:16:41;;;;;;;9.70;9.40;;;16.30;99.90;;;;;;6325634;22;20306;-80
2023/10/17 14:19:15;;;;;;;9.73;9.43;;;16.50;99.90;;;;;;6325687;22;20200;-80
2023/10/17 14:22:01;;;;;;;9.98;9.68;;;16.80;99.90;;;;;;6327399;22;20189;-80
2023/10/17 14:24:38;;;;;;;9.85;9.55;;;16.80;99.90;;;;;;6327194;22;20184;-80
2023/10/17 14:27:11;;;;;;;9.75;9.45;;;17.00;99.90;;;;;;6327499;22;20200;-80
2023/10/17 14:29:42;;;;;;;9.60;9.30;;;17.30;99.90;;;;;;6328120;22;20276;-80
2023/10/17 14:32:13;;;;;;;9.45;9.15;;;17.70;99.90;;;;;;6326455;22;20213;-80
2023/10/17 14:34:42;;;;;;;9.40;9.10;;;18.00;99.90;;;;;;6329775;22;20204;-81
2023/10/17 14:37:13;;;;;;;9.25;8.95;;;18.30;99.90;;;;;;6328873;22;20254;-80
2023/10/17 14:39:43;;;;;;;9.50;9.20;;;18.50;99.90;;;;;;6329624;22;20192;-81
2023/10/17 14:42:13;;;;;;;9.70;9.40;;;18.90;99.90;;;;;;6327989;22;20223;-80
2023/10/17 14:44:42;;;;;;;9.30;9.00;;;19.00;99.90;;;;;;6328011;22;20215;-81
2023/10/17 14:47:11;;;;;;;9.10;8.90;;;19.10;99.90;;;;;;6329187;22;20213;-80
2023/10/17 14:52:19;;;;;;;10.15;9.85;;;18.80;99.90;;;;;;6328768;22;20193;-82
2023/10/17 14:54:52;;;;;;;9.90;9.60;;;18.60;99.90;;;;;;6328807;22;20200;-83
2023/10/17 14:57:20;;;;;;;9.70;9.40;;;18.70;99.90;;;;;;6328732;22;20193;-82
2023/10/17 14:59:48;;;;;;;10.02;9.73;;;19.00;99.90;;;;;;6328380;22;20220;-81
2023/10/17 15:02:18;;;;;;;9.65;9.35;;;18.40;99.90;;;;;;6329193;22;20197;-82
2023/10/17 15:04:47;;;;;;;10.20;9.90;;;18.30;99.90;;;;;;6328123;22;20200;-82
2023/10/17 15:07:16;;;;;;;9.95;9.65;;;18.30;99.90;;;;;;6327475;22;20201;-81
2023/10/17 15:09:47;;;;;;;9.80;9.50;;;18.30;99.90;;;;;;6327911;22;20200;-82
2023/10/17 15:12:17;;;;;;;9.77;9.48;;;18.00;99.90;;;;;;6328605;22;20189;-82
2023/10/17 15:14:45;;;;;;;9.63;9.32;;;18.00;99.90;;;;;;6328694;22;20300;-82
2023/10/17 15:17:13;;;;;;;9.80;9.50;;;18.20;99.90;;;;;;6328171;22;20181;-82
2023/10/17 15:19:48;;;;;;;9.60;9.30;;;18.20;99.90;;;;;;6326581;22;20227;-82
2023/10/17 15:22:15;;;;;;;9.30;9.00;;;18.30;99.90;;;;;;6334867;22;20223;-83
2023/10/17 15:24:42;;;;;;;9.50;9.20;;;18.10;99.90;;;;;;6331001;22;20196;-84
2023/10/17 15:27:13;;;;;;;9.45;9.15;;;18.00;99.90;;;;;;6329678;22;20189;-82
2023/10/17 15:29:44;;;;;;;9.40;9.10;;;17.50;99.90;;;;;;6328465;22;20216;-83
2023/10/17 15:32:13;;;;;;;9.23;8.93;;;16.80;99.90;;;;;;6327647;22;20259;-84
2023/10/17 15:34:40;;;;;;;9.20;8.90;;;16.30;99.90;;;;;;6327672;22;20224;-83
2023/10/17 15:37:10;;;;;;;8.90;8.70;;;15.90;99.90;;;;;;6328197;22;20227;-84
2023/10/17 15:39:38;;;;;;;9.10;8.80;;;15.50;99.90;;;;;;6327215;22;20201;-83
2023/10/17 15:44:49;;;;;;;8.70;8.50;;;14.80;99.90;;;;;;6328451;22;20196;-84
2023/10/17 15:47:16;;;;;;;8.77;8.57;;;14.30;99.90;;;;;;6328270;22;21154;-84
2023/10/17 15:49:48;;;;;;;8.97;8.77;;;14.00;99.90;;;;;;6332533;22;20200;-85
2023/10/17 15:52:15;;;;;;;8.80;8.60;;;13.70;99.90;;;;;;6328510;22;20260;-83
2023/10/17 15:54:44;;;;;;;8.60;8.40;;;13.50;99.90;;;;;;6325618;22;20224;-84
2023/10/17 15:57:15;;;;;;;8.77;8.57;;;13.20;99.90;;;;;;6326889;22;20196;-82
2023/10/17 15:59:43;;;;;;;8.70;8.50;;;13.10;99.90;;;;;;6325968;22;20790;-83
2023/10/17 16:02:14;;;;;;;8.97;8.77;;;12.90;99.90;;;;;;6325753;22;20205;-82
2023/10/17 16:04:41;;;;;;;8.83;8.63;;;12.70;99.90;;;;;;6325804;22;20204;-83
2023/10/17 16:07:11;;;;;;;8.80;8.60;;;12.50;99.90;;;;;;6328381;22;20189;-82
2023/10/17 16:09:42;;;;;;;8.63;8.43;;;12.20;99.90;;;;;;6333295;22;20201;-83
2023/10/17 16:12:10;;;;;;;8.70;8.50;;;12.00;99.90;;;;;;6327191;22;20211;-85
2023/10/17 16:17:23;;;;;;;8.37;8.17;;;11.70;99.90;;;;;;6324884;22;20204;-84
2023/10/17 16:19:51;;;;;;;8.47;8.27;;;11.60;99.90;;;;;;6326349;22;20197;-82
2023/10/17 16:22:18;;;;;;;8.23;8.03;;;11.50;99.90;;;;;;6323248;22;20200;-82
2023/10/17 16:24:46;;;;;;;8.50;8.30;;;11.50;99.90;;;;;;6324538;22;20200;-81
2023/10/17 16:27:15;;;;;;;8.43;8.23;;;11.40;99.90;;;;;;6324582;22;20261;-82
2023/10/17 16:29:46;;;;;;;8.47;8.27;;;11.30;99.90;;;;;;6324915;22;20220;-80
2023/10/17 16:32:14;;;;;;;8.57;8.37;;;11.20;99.90;;;;;;6324611;22;20196;-82
2023/10/17 16:34:46;;;;;;;8.33;8.13;;;11.10;99.90;;;;;;6324523;22;20251;-82
2023/10/17 16:37:15;;;;;;;8.68;8.48;;;11.00;99.90;;;;;;6324501;22;20396;-81
2023/10/17 16:39:43;;;;;;;8.53;8.33;;;11.00;99.90;;;;;;6324187;22;20280;-81
2023/10/17 16:42:12;;;;;;;7.90;7.70;;;10.90;99.90;;;;;;6323377;22;20212;-80
2023/10/17 16:44:40;;;;;;;8.47;8.27;;;10.80;99.90;;;;;;6323532;22;20291;-80
2023/10/17 16:47:08;;;;;;;7.77;7.57;;;10.80;99.90;;;;;;6323803;22;20211;-80
2023/10/17 16:49:35;;;;;;;8.27;8.07;;;10.70;99.90;;;;;;6325631;22;20244;-81
2023/10/17 16:52:04;;;;;;;8.10;7.90;;;10.60;99.90;;;;;;6325757;22;20189;-81
2023/10/17 16:54:32;;;;;;;8.30;8.10;;;10.50;99.90;;;;;;6326653;22;20269;-80